Time;durP1;ratioP1;P1;durP2;ratioP2;P2;SDS_P1;SDS_P2;PMS_P1;PMS_P2;Temp;Humidity;BMP_temperature;BMP_pressure;BME280_temperature;BME280_humidity;BME280_pressure;Samples;Min_cycle;Max_cycle;Signal;HPM_P1;HPM_P2
2022/07/30 00:00:05;;;;;;;;;;;24.10;69.40;24.10;99735.00;;;;335666;28;94181;-83
2022/07/30 00:00:17;;;;;;;;;;;24.10;69.40;24.10;99735.00;;;;332492;29;83486;-83
2022/07/30 00:00:35;;;;;;;;;;;24.10;69.50;24.10;99733.00;;;;331962;29;93736;-84
2022/07/30 00:00:47;;;;;;;;;;;24.10;69.40;24.10;99729.00;;;;332722;29;83354;-83
2022/07/30 00:00:59;;;;;;;;;;;24.10;69.40;24.10;99732.00;;;;333240;29;94208;-83
2022/07/30 00:01:11;;;;;;;;;;;24.10;69.40;24.10;99734.00;;;;334010;29;82592;-83
2022/07/30 00:01:23;;;;;;;;;;;24.10;69.40;24.10;99739.00;;;;333276;29;93461;-83
2022/07/30 00:01:35;;;;;;;;;;;24.10;69.70;24.20;99730.00;;;;332763;29;83460;-83
2022/07/30 00:01:46;;;;;;;;;;;24.10;69.60;24.10;99727.00;;;;332018;29;94212;-83
2022/07/30 00:01:58;;;;;;;;;;;24.10;69.50;24.20;99733.00;;;;332551;29;83498;-84
2022/07/30 00:02:10;;;;;;;;;;;24.10;69.50;24.20;99736.00;;;;334485;29;94553;-83
2022/07/30 00:02:22;;;;;;;;;;;24.10;69.40;24.20;99729.00;;;;336641;28;83417;-83
2022/07/30 00:02:33;;;;;;;;;;;24.10;69.40;24.20;99725.00;;;;335832;28;94115;-83
2022/07/30 00:02:45;;;;;;;;;;;24.10;69.40;24.10;99728.00;;;;336467;28;83453;-83
2022/07/30 00:02:57;;;;;;;;;;;24.10;69.50;24.10;99726.00;;;;335894;28;94513;-83
2022/07/30 00:03:09;;;;;;;;;;;24.00;69.50;24.00;99735.00;;;;336619;28;83337;-83
2022/07/30 00:03:21;;;;;;;;;;;24.00;69.60;24.10;99732.00;;;;335838;28;93422;-83
2022/07/30 00:03:32;;;;;;;;;;;24.00;69.50;24.00;99732.00;;;;335353;29;83358;-83
2022/07/30 00:03:44;;;;;;;;;;;24.00;69.50;24.10;99723.00;;;;333284;29;94324;-83
2022/07/30 00:03:56;;;;;;;;;;;24.00;69.50;24.00;99727.00;;;;333946;29;83371;-83
2022/07/30 00:04:08;;;;;;;;;;;24.00;69.50;24.00;99725.00;;;;333213;29;94710;-83
2022/07/30 00:04:20;;;;;;;;;;;24.00;69.40;24.00;99729.00;;;;333953;29;83171;-83
2022/07/30 00:04:32;;;;;;;;;;;24.00;70.00;24.10;99723.00;;;;333302;29;94454;-83
2022/07/30 00:04:44;;;;;;;;;;;24.00;69.40;24.00;99728.00;;;;333951;29;83499;-83
2022/07/30 00:04:56;;;;;;;;;;;24.10;69.40;24.10;99726.00;;;;333296;29;94587;-83
2022/07/30 00:05:08;;;;;;;;;;;24.00;69.30;24.00;99732.00;;;;334010;29;83325;-83
2022/07/30 00:05:20;;;;;;;;;;;24.00;69.30;23.90;99729.00;;;;334284;28;93311;-83
2022/07/30 00:05:32;;;;;;;;;;;24.00;69.30;24.00;99735.00;;;;337190;28;83395;-83
2022/07/30 00:05:43;;;;;;;;;;;24.00;69.50;23.90;99729.00;;;;337203;28;94155;-83
2022/07/30 00:05:55;;;;;;;;;;;24.00;69.50;24.00;99732.00;;;;336556;28;82416;-83
2022/07/30 00:06:07;;;;;;;;;;;24.00;69.40;24.10;99722.00;;;;334483;29;94707;-83
2022/07/30 00:06:19;;;;;;;;;;;24.00;69.50;24.10;99728.00;;;;335326;29;83353;-83
2022/07/30 00:06:31;;;;;;;;;;;24.00;69.50;24.10;99728.00;;;;334549;29;94645;-83
2022/07/30 00:06:43;;;;;;;;;;;24.00;69.50;24.10;99728.00;;;;335231;29;83568;-83
2022/07/30 00:06:55;;;;;;;;;;;24.00;69.50;24.00;99735.00;;;;334572;29;94751;-83
2022/07/30 00:07:06;;;;;;;;;;;24.00;69.50;24.10;99732.00;;;;335289;29;83479;-83
2022/07/30 00:07:18;;;;;;;;;;;24.00;69.50;24.10;99738.00;;;;334528;29;93558;-83
2022/07/30 00:07:30;;;;;;;;;;;24.00;69.40;24.00;99729.00;;;;335334;29;83360;-83
2022/07/30 00:07:42;;;;;;;;;;;24.00;69.40;23.90;99728.00;;;;334585;29;94309;-84
2022/07/30 00:07:53;;;;;;;;;;;24.00;69.50;23.90;99728.00;;;;336161;28;83427;-83
2022/07/30 00:08:05;;;;;;;;;;;24.00;69.60;23.80;99730.00;;;;337086;28;94297;-83
2022/07/30 00:08:17;;;;;;;;;;;24.00;69.80;23.90;99733.00;;;;336614;28;82562;-83
2022/07/30 00:08:29;;;;;;;;;;;24.00;69.80;23.80;99731.00;;;;335897;28;93201;-84
2022/07/30 00:08:40;;;;;;;;;;;24.00;69.80;23.80;99736.00;;;;336589;28;82459;-83
2022/07/30 00:08:52;;;;;;;;;;;24.00;69.80;23.90;99729.00;;;;336228;28;94407;-83
2022/07/30 00:09:04;;;;;;;;;;;24.00;69.80;23.90;99732.00;;;;335233;29;83489;-83
2022/07/30 00:09:16;;;;;;;;;;;24.00;69.80;23.90;99734.00;;;;334530;29;93828;-83
2022/07/30 00:09:27;;;;;;;;;;;24.00;69.70;23.90;99728.00;;;;335286;29;83437;-83
2022/07/30 00:09:44;;;;;;;;;;;24.00;69.70;23.90;99728.00;;;;334596;29;94265;-83
2022/07/30 00:09:56;;;;;;;;;;;23.90;69.50;23.90;99736.00;;;;333899;29;83371;-83
2022/07/30 00:10:08;;;;;;;;;;;23.90;69.50;23.90;99728.00;;;;333956;29;94613;-83
2022/07/30 00:10:21;;;;;;;;;;;23.90;69.60;23.80;99735.00;;;;336626;28;83524;-83
2022/07/30 00:10:33;;;;;;;;;;;23.90;69.60;23.90;99731.00;;;;333221;29;94290;-83
2022/07/30 00:10:45;;;;;;;;;;;23.90;69.60;24.00;99728.00;;;;335343;29;83250;-83
2022/07/30 00:11:00;;;;;;;;;;;23.90;69.60;23.70;99727.00;;;;334554;29;94569;-83
2022/07/30 00:11:14;;;;;;;;;;;23.90;69.70;23.70;99729.00;;;;335257;29;82470;-83
2022/07/30 00:11:26;;;;;;;;;;;23.90;69.70;23.70;99732.00;;;;334594;29;93787;-83
2022/07/30 00:11:38;;;;;;;;;;;23.80;69.70;23.60;99729.00;;;;335349;29;83331;-83
2022/07/30 00:11:50;;;;;;;;;;;23.80;70.50;23.70;99734.00;;;;334549;29;94188;-83
2022/07/30 00:12:03;;;;;;;;;;;23.80;70.00;23.80;99725.00;;;;336477;28;83502;-83
2022/07/30 00:12:15;;;;;;;;;;;23.80;69.90;23.90;99729.00;;;;334513;29;94780;-83
2022/07/30 00:12:27;;;;;;;;;;;23.80;69.70;23.90;99726.00;;;;336588;28;83323;-83
2022/07/30 00:12:38;;;;;;;;;;;23.80;69.60;24.00;99726.00;;;;335811;28;94344;-83
2022/07/30 00:12:50;;;;;;;;;;;23.80;69.50;23.90;99729.00;;;;336596;28;83371;-83
2022/07/30 00:13:02;;;;;;;;;;;23.80;69.50;23.90;99730.00;;;;334507;29;94548;-83
2022/07/30 00:13:14;;;;;;;;;;;23.80;69.50;23.90;99724.00;;;;335201;29;82433;-83
2022/07/30 00:13:25;;;;;;;;;;;23.80;69.40;23.90;99729.00;;;;333287;29;93501;-83
2022/07/30 00:13:37;;;;;;;;;;;23.80;69.60;23.90;99726.00;;;;332779;29;82408;-83
2022/07/30 00:13:49;;;;;;;;;;;23.80;69.50;23.90;99731.00;;;;333264;29;94390;-83
2022/07/30 00:14:01;;;;;;;;;;;23.80;69.40;23.90;99724.00;;;;332590;29;83334;-83
2022/07/30 00:14:13;;;;;;;;;;;23.80;69.50;23.80;99722.00;;;;331798;29;94241;-83
2022/07/30 00:14:25;;;;;;;;;;;23.80;69.70;23.80;99731.00;;;;332715;29;83339;-83
2022/07/30 00:14:37;;;;;;;;;;;23.80;69.70;23.80;99729.00;;;;333175;29;94507;-83
2022/07/30 00:14:48;;;;;;;;;;;23.80;69.60;23.80;99730.00;;;;335324;29;82415;-83
2022/07/30 00:15:00;;;;;;;;;;;23.80;69.50;23.70;99735.00;;;;334537;29;94235;-83
2022/07/30 00:15:12;;;;;;;;;;;23.80;69.70;23.80;99725.00;;;;334016;29;83387;-83
2022/07/30 00:15:23;;;;;;;;;;;23.80;69.70;23.80;99730.00;;;;333245;29;93924;-83
2022/07/30 00:15:35;;;;;;;;;;;23.80;69.70;23.90;99730.00;;;;334082;29;82400;-83
2022/07/30 00:15:47;;;;;;;;;;;23.80;69.60;23.90;99736.00;;;;330723;29;94546;-83
2022/07/30 00:15:59;;;;;;;;;;;23.80;69.50;23.90;99733.00;;;;333854;29;82556;-83
2022/07/30 00:16:11;;;;;;;;;;;23.80;69.50;23.90;99727.00;;;;333199;29;94802;-83
2022/07/30 00:16:22;;;;;;;;;;;23.80;69.50;23.90;99727.00;;;;334037;29;83478;-83
2022/07/30 00:16:34;;;;;;;;;;;23.80;69.40;23.90;99732.00;;;;333199;29;94503;-83
2022/07/30 00:16:46;;;;;;;;;;;23.80;69.50;23.80;99730.00;;;;334005;29;82499;-83
2022/07/30 00:16:58;;;;;;;;;;;23.80;69.50;23.90;99730.00;;;;333229;29;94224;-83
2022/07/30 00:17:11;;;;;;;;;;;23.80;69.50;23.90;99730.00;;;;333976;29;83464;-83
2022/07/30 00:17:23;;;;;;;;;;;23.80;69.40;23.90;99727.00;;;;333237;29;93386;-83
2022/07/30 00:17:34;;;;;;;;;;;23.80;69.50;23.70;99730.00;;;;332710;29;83429;-83
2022/07/30 00:17:46;;;;;;;;;;;23.80;69.40;23.70;99725.00;;;;332001;29;94161;-83
2022/07/30 00:18:00;;;;;;;;;;;23.80;69.50;23.80;99723.00;;;;333865;29;83458;-83
2022/07/30 00:18:12;;;;;;;;;;;23.80;69.60;23.70;99733.00;;;;334504;29;94517;-83
2022/07/30 00:18:23;;;;;;;;;;;23.80;69.50;23.70;99738.00;;;;335339;29;82550;-83
2022/07/30 00:18:35;;;;;;;;;;;23.80;69.50;23.70;99726.00;;;;334472;29;94446;-83
2022/07/30 00:18:49;;;;;;;;;;;23.80;69.40;23.80;99734.00;;;;335311;29;83340;-83
2022/07/30 00:19:02;;;;;;;;;;;23.80;69.40;23.90;99730.00;;;;334513;29;94514;-83
2022/07/30 00:19:14;;;;;;;;;;;23.80;69.40;23.90;99727.00;;;;332689;29;83713;-83
2022/07/30 00:19:26;;;;;;;;;;;23.80;69.30;23.90;99732.00;;;;333274;29;93432;-83
2022/07/30 00:19:37;;;;;;;;;;;23.80;69.30;23.90;99729.00;;;;334026;29;83379;-83
2022/07/30 00:19:49;;;;;;;;;;;23.80;69.30;23.90;99728.00;;;;333324;29;93369;-83
2022/07/30 00:20:04;;;;;;;;;;;23.80;69.30;23.80;99728.00;;;;335055;29;83465;-83
2022/07/30 00:20:16;;;;;;;;;;;23.80;69.30;23.80;99737.00;;;;334221;29;94515;-83
2022/07/30 00:20:29;;;;;;;;;;;23.80;69.30;23.80;99729.00;;;;335305;29;83217;-83
2022/07/30 00:20:42;;;;;;;;;;;23.80;69.40;23.80;99725.00;;;;334543;28;94509;-83
2022/07/30 00:20:55;;;;;;;;;;;23.80;69.40;23.90;99726.00;;;;336596;28;82480;-83
2022/07/30 00:21:07;;;;;;;;;;;23.80;69.40;23.90;99726.00;;;;335852;28;94454;-83
2022/07/30 00:21:21;;;;;;;;;;;23.80;69.30;23.80;99730.00;;;;336763;28;83289;-83
2022/07/30 00:21:49;;;;;;;;;;;23.80;69.30;23.70;99737.00;;;;335115;28;93411;-83
2022/07/30 00:22:01;;;;;;;;;;;23.80;69.40;23.80;99728.00;;;;333829;29;83482;-83
2022/07/30 00:22:13;;;;;;;;;;;23.80;69.40;23.70;99734.00;;;;333274;29;94269;-83
2022/07/30 00:22:24;;;;;;;;;;;23.80;69.40;23.70;99724.00;;;;336140;28;83569;-83
2022/07/30 00:22:36;;;;;;;;;;;23.80;69.50;23.60;99722.00;;;;335799;28;94207;-83
2022/07/30 00:22:48;;;;;;;;;;;23.70;69.20;23.70;99722.00;;;;335247;29;83462;-83
2022/07/30 00:23:03;;;;;;;;;;;23.70;69.20;23.70;99719.00;;;;334565;29;94253;-84
2022/07/30 00:23:15;;;;;;;;;;;23.70;69.10;23.70;99731.00;;;;335230;29;83373;-83
2022/07/30 00:23:27;;;;;;;;;;;23.70;69.20;23.80;99719.00;;;;334493;29;94452;-83
2022/07/30 00:23:38;;;;;;;;;;;23.70;69.30;23.90;99724.00;;;;335288;29;83485;-83
2022/07/30 00:24:10;;;;;;;;;;;23.70;69.30;23.90;99727.00;;;;335866;28;94521;-83
2022/07/30 00:24:22;;;;;;;;;;;23.80;69.20;23.90;99722.00;;;;337490;28;83617;-83
2022/07/30 00:24:34;;;;;;;;;;;23.80;69.20;23.90;99713.00;;;;337095;28;93148;-83
2022/07/30 00:24:45;;;;;;;;;;;23.80;69.10;24.00;99721.00;;;;337874;28;83379;-83
2022/07/30 00:24:57;;;;;;;;;;;23.80;69.10;24.00;99719.00;;;;335877;28;94465;-82
2022/07/30 00:25:10;;;;;;;;;;;23.80;69.00;24.00;99717.00;;;;336638;28;82451;-84
2022/07/30 00:25:21;;;;;;;;;;;23.80;68.90;24.00;99724.00;;;;335647;28;96070;-83
2022/07/30 00:25:33;;;;;;;;;;;23.80;68.90;24.00;99723.00;;;;335319;29;83336;-83
2022/07/30 00:25:45;;;;;;;;;;;23.80;68.80;24.00;99721.00;;;;334569;29;94293;-83
2022/07/30 00:25:57;;;;;;;;;;;23.80;68.90;23.90;99718.00;;;;333837;29;83419;-83
2022/07/30 00:26:09;;;;;;;;;;;23.80;68.90;23.90;99722.00;;;;332057;29;93471;-83
2022/07/30 00:26:20;;;;;;;;;;;23.80;68.90;23.80;99717.00;;;;332719;29;83398;-83
2022/07/30 00:26:32;;;;;;;;;;;23.80;68.80;23.80;99721.00;;;;331965;29;94146;-83
2022/07/30 00:26:44;;;;;;;;;;;23.80;68.70;23.80;99720.00;;;;331426;29;83477;-83
2022/07/30 00:26:56;;;;;;;;;;;23.80;68.70;23.70;99716.00;;;;330736;29;94152;-83
2022/07/30 00:27:08;;;;;;;;;;;23.80;68.70;23.80;99716.00;;;;332767;29;82425;-83
2022/07/30 00:27:19;;;;;;;;;;;23.80;68.70;23.80;99716.00;;;;331858;29;94261;-84
2022/07/30 00:27:33;;;;;;;;;;;23.80;68.80;23.90;99712.00;;;;331486;29;82486;-83
2022/07/30 00:27:45;;;;;;;;;;;23.80;68.80;23.90;99719.00;;;;330768;29;93107;-83
2022/07/30 00:27:57;;;;;;;;;;;23.80;68.90;23.80;99721.00;;;;331310;29;83394;-83
2022/07/30 00:28:09;;;;;;;;;;;23.80;68.80;23.80;99718.00;;;;332046;29;93806;-83
2022/07/30 00:28:20;;;;;;;;;;;23.80;68.80;23.80;99722.00;;;;331480;29;83359;-83
2022/07/30 00:28:32;;;;;;;;;;;23.80;68.70;23.80;99717.00;;;;330724;29;94204;-83
2022/07/30 00:28:44;;;;;;;;;;;23.80;68.60;23.80;99711.00;;;;331380;29;83550;-83
2022/07/30 00:28:56;;;;;;;;;;;23.80;68.60;23.90;99715.00;;;;332000;29;94521;-83
2022/07/30 00:29:07;;;;;;;;;;;23.80;68.60;23.90;99714.00;;;;332753;29;83372;-83
2022/07/30 00:29:19;;;;;;;;;;;23.80;68.70;23.90;99719.00;;;;333103;29;94866;-83
2022/07/30 00:29:31;;;;;;;;;;;23.80;68.60;23.80;99717.00;;;;332764;29;83397;-83
2022/07/30 00:29:43;;;;;;;;;;;23.80;68.70;23.80;99719.00;;;;331983;29;94454;-83
2022/07/30 00:29:55;;;;;;;;;;;23.80;68.70;23.80;99715.00;;;;335218;29;82446;-83
2022/07/30 00:30:07;;;;;;;;;;;23.80;68.70;23.80;99717.00;;;;334676;28;95178;-82
2022/07/30 00:30:19;;;;;;;;;;;23.80;68.80;23.80;99712.00;;;;336490;28;83375;-83
2022/07/30 00:30:31;;;;;;;;;;;23.80;68.80;23.80;99717.00;;;;335802;28;94520;-83
2022/07/30 00:30:43;;;;;;;;;;;23.80;68.80;23.80;99706.00;;;;336479;28;83621;-83
2022/07/30 00:30:55;;;;;;;;;;;23.80;68.70;23.70;99712.00;;;;335827;28;94361;-83
2022/07/30 00:31:07;;;;;;;;;;;23.80;68.70;23.70;99711.00;;;;336610;28;83350;-83
2022/07/30 00:31:18;;;;;;;;;;;23.70;68.70;23.70;99712.00;;;;335751;28;94310;-83
2022/07/30 00:31:31;;;;;;;;;;;23.70;68.70;23.80;99709.00;;;;336560;28;83510;-83
2022/07/30 00:31:43;;;;;;;;;;;23.70;68.80;23.70;99713.00;;;;334578;29;93001;-84
2022/07/30 00:31:54;;;;;;;;;;;23.70;68.90;23.80;99711.00;;;;335204;29;83378;-83
2022/07/30 00:32:06;;;;;;;;;;;23.70;68.90;23.80;99709.00;;;;334560;29;93573;-83
2022/07/30 00:32:18;;;;;;;;;;;23.70;68.80;23.90;99704.00;;;;335297;29;83455;-83
2022/07/30 00:32:29;;;;;;;;;;;23.70;68.80;23.70;99712.00;;;;335837;28;94210;-83
2022/07/30 00:32:41;;;;;;;;;;;23.80;69.00;23.70;99707.00;;;;337808;28;83425;-83
2022/07/30 00:32:53;;;;;;;;;;;23.70;68.90;23.70;99713.00;;;;335838;28;94275;-83
2022/07/30 00:33:05;;;;;;;;;;;23.70;68.90;23.70;99707.00;;;;335293;29;83419;-83
2022/07/30 00:33:19;;;;;;;;;;;23.70;68.80;23.70;99710.00;;;;334447;29;94545;-84
2022/07/30 00:33:30;;;;;;;;;;;23.70;68.80;23.70;99699.00;;;;336562;28;83373;-83
2022/07/30 00:33:42;;;;;;;;;;;23.70;68.80;23.60;99705.00;;;;335806;28;94603;-83
2022/07/30 00:33:54;;;;;;;;;;;23.70;68.90;23.60;99705.00;;;;335192;29;83389;-83
2022/07/30 00:34:06;;;;;;;;;;;23.70;68.90;23.70;99709.00;;;;335852;28;93589;-83
2022/07/30 00:34:17;;;;;;;;;;;23.70;68.80;23.60;99702.00;;;;336383;28;83419;-83
2022/07/30 00:34:29;;;;;;;;;;;23.70;69.60;23.50;99710.00;;;;334526;29;94214;-83
2022/07/30 00:34:41;;;;;;;;;;;23.70;69.00;23.60;99715.00;;;;335275;29;83380;-83
2022/07/30 00:34:53;;;;;;;;;;;23.60;68.90;23.60;99697.00;;;;334583;29;93460;-83
2022/07/30 00:35:05;;;;;;;;;;;23.60;68.90;23.70;99708.00;;;;335284;29;83380;-83
2022/07/30 00:35:17;;;;;;;;;;;23.60;68.80;23.60;99701.00;;;;333219;29;94261;-84
2022/07/30 00:35:29;;;;;;;;;;;23.60;68.90;23.60;99702.00;;;;333882;29;83523;-84
2022/07/30 00:35:41;;;;;;;;;;;23.60;68.90;23.60;99696.00;;;;335868;28;94349;-84
2022/07/30 00:35:52;;;;;;;;;;;23.60;69.00;23.60;99712.00;;;;336636;28;82444;-84
2022/07/30 00:36:04;;;;;;;;;;;23.60;69.00;23.60;99704.00;;;;335855;28;93528;-84
2022/07/30 00:36:16;;;;;;;;;;;23.60;69.00;23.60;99700.00;;;;337923;28;82473;-84
2022/07/30 00:36:28;;;;;;;;;;;23.60;69.00;23.50;99705.00;;;;337650;28;94336;-84
2022/07/30 00:36:39;;;;;;;;;;;23.60;68.90;23.50;99705.00;;;;339198;28;83317;-84
2022/07/30 00:36:51;;;;;;;;;;;23.60;68.70;23.60;99699.00;;;;338454;28;94587;-85
2022/07/30 00:37:03;;;;;;;;;;;23.60;68.80;23.70;99702.00;;;;337944;28;83344;-84
2022/07/30 00:37:15;;;;;;;;;;;23.60;69.10;23.80;99702.00;;;;335846;28;93101;-84
2022/07/30 00:37:26;;;;;;;;;;;23.60;69.00;23.80;99710.00;;;;337839;28;82500;-84
2022/07/30 00:37:38;;;;;;;;;;;23.60;68.90;23.80;99701.00;;;;335817;28;94137;-84
2022/07/30 00:37:50;;;;;;;;;;;23.60;68.90;23.80;99702.00;;;;336652;28;83335;-83
2022/07/30 00:38:02;;;;;;;;;;;23.60;68.80;23.70;99706.00;;;;337108;28;93573;-83
2022/07/30 00:38:13;;;;;;;;;;;23.60;68.90;23.60;99709.00;;;;337920;28;82393;-84
2022/07/30 00:38:25;;;;;;;;;;;23.60;68.80;23.60;99703.00;;;;337148;28;94561;-84
2022/07/30 00:38:37;;;;;;;;;;;23.60;68.80;23.60;99702.00;;;;337813;28;83427;-84
2022/07/30 00:38:49;;;;;;;;;;;23.60;68.80;23.70;99706.00;;;;337104;28;94169;-84
2022/07/30 00:39:00;;;;;;;;;;;23.60;68.70;23.70;99712.00;;;;337936;28;83395;-84
2022/07/30 00:39:12;;;;;;;;;;;23.60;68.70;23.70;99707.00;;;;333279;29;92937;-84
2022/07/30 00:39:24;;;;;;;;;;;23.60;68.60;23.70;99701.00;;;;335297;29;83438;-84
2022/07/30 00:39:36;;;;;;;;;;;23.60;68.60;23.70;99714.00;;;;334558;29;93660;-84
2022/07/30 00:39:48;;;;;;;;;;;23.70;68.60;23.70;99712.00;;;;335293;29;83496;-84
2022/07/30 00:39:59;;;;;;;;;;;23.70;68.60;23.70;99713.00;;;;334578;29;93737;-84
2022/07/30 00:40:11;;;;;;;;;;;23.60;68.70;23.60;99708.00;;;;335220;29;83460;-84
2022/07/30 00:40:23;;;;;;;;;;;23.60;68.70;23.60;99703.00;;;;334585;29;94380;-84
2022/07/30 00:40:35;;;;;;;;;;;23.70;68.70;23.70;99702.00;;;;336545;28;83417;-84
2022/07/30 00:40:47;;;;;;;;;;;23.70;68.60;23.70;99710.00;;;;335767;28;94494;-84
2022/07/30 00:40:59;;;;;;;;;;;23.70;68.50;23.70;99712.00;;;;336642;28;83349;-83
2022/07/30 00:41:10;;;;;;;;;;;23.70;68.60;23.80;99711.00;;;;333241;29;94174;-83
2022/07/30 00:41:23;;;;;;;;;;;23.70;68.50;23.70;99711.00;;;;335264;29;82610;-84
2022/07/30 00:41:51;;;;;;;;;;;23.60;68.40;23.70;99713.00;;;;334541;29;93477;-83
2022/07/30 00:42:03;;;;;;;;;;;23.70;68.40;23.80;99713.00;;;;336531;28;83504;-84
2022/07/30 00:42:16;;;;;;;;;;;23.70;68.60;23.80;99709.00;;;;335910;28;93471;-84
2022/07/30 00:42:41;;;;;;;;;;;23.70;69.00;23.80;99713.00;;;;336623;28;83404;-84
2022/07/30 00:42:53;;;;;;;;;;;23.70;68.30;23.80;99706.00;;;;335824;28;94494;-83
2022/07/30 00:43:05;;;;;;;;;;;23.70;68.20;23.80;99720.00;;;;336580;28;83421;-84
2022/07/30 00:43:17;;;;;;;;;;;23.70;68.20;23.80;99708.00;;;;335884;28;94500;-84
2022/07/30 00:43:28;;;;;;;;;;;23.70;68.30;23.80;99706.00;;;;336562;28;83416;-84
2022/07/30 00:43:40;;;;;;;;;;;23.80;68.30;23.70;99711.00;;;;335852;28;94439;-84
2022/07/30 00:43:52;;;;;;;;;;;23.70;68.20;23.80;99713.00;;;;336556;28;83593;-84
2022/07/30 00:44:04;;;;;;;;;;;23.70;68.30;23.80;99713.00;;;;334513;29;94537;-83
2022/07/30 00:44:15;;;;;;;;;;;23.80;68.40;23.80;99704.00;;;;335479;29;83325;-84
2022/07/30 00:44:27;;;;;;;;;;;23.70;68.30;23.70;99712.00;;;;334839;29;93523;-83
2022/07/30 00:44:40;;;;;;;;;;;23.80;68.50;23.70;99709.00;;;;335450;29;83490;-84
2022/07/30 00:44:52;;;;;;;;;;;23.70;68.70;23.80;99708.00;;;;334682;29;94586;-83
2022/07/30 00:45:05;;;;;;;;;;;23.70;68.50;23.80;99706.00;;;;334247;29;83318;-83
2022/07/30 00:45:17;;;;;;;;;;;23.70;68.50;23.60;99714.00;;;;333405;29;94507;-83
2022/07/30 00:45:29;;;;;;;;;;;23.70;68.50;23.60;99708.00;;;;334295;29;82410;-83
2022/07/30 00:45:41;;;;;;;;;;;23.70;68.50;23.70;99710.00;;;;333481;29;94148;-84
2022/07/30 00:45:53;;;;;;;;;;;23.70;68.50;23.60;99709.00;;;;335545;29;83420;-83
2022/07/30 00:46:05;;;;;;;;;;;23.70;68.50;23.60;99709.00;;;;334729;29;94883;-84
2022/07/30 00:46:17;;;;;;;;;;;23.70;68.60;23.70;99702.00;;;;335533;29;82214;-83
2022/07/30 00:46:28;;;;;;;;;;;23.70;68.50;23.70;99721.00;;;;334846;29;93540;-83
2022/07/30 00:46:40;;;;;;;;;;;23.70;68.70;23.70;99713.00;;;;335483;29;83458;-83
2022/07/30 00:46:52;;;;;;;;;;;23.70;68.60;23.70;99713.00;;;;334722;29;94651;-84
2022/07/30 00:47:04;;;;;;;;;;;23.70;68.50;23.60;99708.00;;;;332944;29;83362;-83
2022/07/30 00:47:16;;;;;;;;;;;23.70;68.70;23.50;99714.00;;;;332113;29;94490;-83
2022/07/30 00:47:27;;;;;;;;;;;23.70;68.80;23.50;99705.00;;;;334213;29;83494;-83
2022/07/30 00:47:39;;;;;;;;;;;23.70;68.60;23.50;99706.00;;;;333439;29;94285;-84
2022/07/30 00:47:51;;;;;;;;;;;23.60;68.60;23.50;99704.00;;;;335494;29;82543;-84
2022/07/30 00:48:03;;;;;;;;;;;23.60;68.50;23.60;99701.00;;;;334797;29;93433;-83
2022/07/30 00:48:15;;;;;;;;;;;23.60;68.40;23.60;99711.00;;;;336827;28;83449;-83
2022/07/30 00:48:27;;;;;;;;;;;23.60;68.50;23.60;99699.00;;;;334811;29;93880;-84
2022/07/30 00:48:39;;;;;;;;;;;23.60;68.50;23.50;99707.00;;;;336774;28;83381;-83
2022/07/30 00:48:50;;;;;;;;;;;23.60;68.40;23.40;99707.00;;;;337307;28;94161;-83
2022/07/30 00:49:02;;;;;;;;;;;23.60;68.50;23.40;99705.00;;;;336826;28;83347;-83
2022/07/30 00:49:14;;;;;;;;;;;23.60;68.40;23.40;99708.00;;;;335997;28;94660;-83
2022/07/30 00:49:26;;;;;;;;;;;23.60;68.50;23.40;99704.00;;;;336754;28;83465;-83
2022/07/30 00:49:37;;;;;;;;;;;23.50;68.40;23.50;99706.00;;;;336121;28;93106;-83
2022/07/30 00:49:54;;;;;;;;;;;23.50;68.50;23.50;99706.00;;;;336820;28;83166;-83
2022/07/30 00:50:08;;;;;;;;;;;23.50;68.60;23.40;99705.00;;;;336028;28;94117;-83
2022/07/30 00:50:20;;;;;;;;;;;23.50;68.60;23.50;99712.00;;;;334232;29;83265;-83
2022/07/30 00:50:32;;;;;;;;;;;23.50;68.60;23.50;99707.00;;;;333429;29;96266;-84
2022/07/30 00:50:45;;;;;;;;;;;23.50;68.50;23.50;99707.00;;;;334053;29;83428;-83
2022/07/30 00:50:59;;;;;;;;;;;23.50;68.60;23.50;99705.00;;;;333435;29;93546;-84
2022/07/30 00:51:10;;;;;;;;;;;23.50;68.50;23.50;99705.00;;;;334241;29;83339;-84
2022/07/30 00:51:22;;;;;;;;;;;23.50;68.70;23.50;99703.00;;;;334759;29;94226;-83
2022/07/30 00:51:34;;;;;;;;;;;23.50;68.70;23.40;99708.00;;;;334202;29;83406;-83
2022/07/30 00:51:46;;;;;;;;;;;23.50;69.00;23.50;99708.00;;;;333447;29;94486;-83
2022/07/30 00:51:57;;;;;;;;;;;23.50;69.00;23.40;99707.00;;;;334173;29;83368;-84
2022/07/30 00:52:09;;;;;;;;;;;23.50;69.00;23.50;99705.00;;;;333352;29;94451;-83
2022/07/30 00:52:21;;;;;;;;;;;23.50;68.80;23.50;99701.00;;;;334220;29;82468;-84
2022/07/30 00:52:34;;;;;;;;;;;23.40;68.70;23.50;99708.00;;;;333493;29;94128;-83
2022/07/30 00:52:47;;;;;;;;;;;23.40;68.70;23.50;99705.00;;;;332869;29;83542;-83
2022/07/30 00:52:59;;;;;;;;;;;23.50;68.80;23.50;99703.00;;;;333483;29;94476;-84
2022/07/30 00:53:10;;;;;;;;;;;23.50;68.80;23.40;99705.00;;;;334239;29;82405;-84
2022/07/30 00:53:23;;;;;;;;;;;23.50;68.80;23.50;99709.00;;;;334082;29;94506;-83
2022/07/30 00:53:35;;;;;;;;;;;23.40;68.80;23.50;99703.00;;;;336319;28;83487;-83
2022/07/30 00:53:46;;;;;;;;;;;23.40;68.80;23.60;99699.00;;;;336030;28;94587;-84
2022/07/30 00:54:00;;;;;;;;;;;23.40;68.90;23.40;99701.00;;;;335549;29;82409;-84
2022/07/30 00:54:12;;;;;;;;;;;23.40;69.00;23.50;99702.00;;;;333434;29;94704;-83
2022/07/30 00:54:24;;;;;;;;;;;23.40;69.10;23.60;99704.00;;;;334206;29;83422;-84
2022/07/30 00:54:35;;;;;;;;;;;23.40;69.00;23.50;99706.00;;;;333507;29;93577;-84
2022/07/30 00:54:47;;;;;;;;;;;23.50;69.00;23.50;99704.00;;;;334186;29;83438;-84
2022/07/30 00:54:59;;;;;;;;;;;23.50;69.20;23.50;99700.00;;;;333478;29;94594;-83
2022/07/30 00:55:12;;;;;;;;;;;23.40;69.20;23.50;99701.00;;;;334195;29;83346;-84
2022/07/30 00:55:24;;;;;;;;;;;23.40;69.10;23.60;99704.00;;;;334739;29;94506;-83
2022/07/30 00:55:36;;;;;;;;;;;23.40;69.00;23.60;99702.00;;;;335553;29;83393;-83
2022/07/30 00:55:48;;;;;;;;;;;23.50;69.00;23.50;99704.00;;;;334720;29;94199;-83
2022/07/30 00:56:02;;;;;;;;;;;23.50;68.90;23.60;99697.00;;;;335433;29;83445;-83
2022/07/30 00:56:14;;;;;;;;;;;23.40;68.90;23.60;99702.00;;;;334726;29;94347;-83
2022/07/30 00:56:26;;;;;;;;;;;23.40;68.90;23.50;99705.00;;;;334199;29;83465;-83
2022/07/30 00:56:38;;;;;;;;;;;23.50;68.90;23.50;99705.00;;;;333350;29;95238;-83
2022/07/30 00:56:49;;;;;;;;;;;23.40;68.80;23.50;99701.00;;;;335461;29;83440;-83
2022/07/30 00:57:01;;;;;;;;;;;23.40;68.90;23.50;99702.00;;;;336077;28;94538;-83
2022/07/30 00:57:13;;;;;;;;;;;23.40;68.90;23.60;99705.00;;;;335450;29;83344;-83
2022/07/30 00:57:26;;;;;;;;;;;23.50;68.90;23.60;99701.00;;;;333468;29;94460;-84
2022/07/30 00:57:38;;;;;;;;;;;23.40;69.00;23.50;99701.00;;;;334279;29;82409;-83
2022/07/30 00:57:50;;;;;;;;;;;23.40;68.90;23.50;99707.00;;;;333383;29;94219;-83
2022/07/30 00:58:01;;;;;;;;;;;23.50;68.90;23.40;99701.00;;;;334122;29;83369;-84
2022/07/30 00:58:14;;;;;;;;;;;23.40;68.80;23.60;99703.00;;;;335972;28;93624;-84
2022/07/30 00:58:26;;;;;;;;;;;23.40;68.70;23.50;99704.00;;;;338100;28;83466;-83
2022/07/30 00:58:38;;;;;;;;;;;23.40;68.70;23.60;99702.00;;;;336130;28;91119;-83
2022/07/30 00:58:49;;;;;;;;;;;23.40;69.40;23.60;99698.00;;;;336758;28;83481;-83
2022/07/30 00:59:01;;;;;;;;;;;23.40;68.70;23.60;99699.00;;;;335989;28;94279;-83
2022/07/30 00:59:13;;;;;;;;;;;23.50;68.70;23.60;99706.00;;;;336768;28;83377;-83
2022/07/30 00:59:27;;;;;;;;;;;23.50;68.80;23.60;99699.00;;;;334795;29;94548;-84
2022/07/30 00:59:39;;;;;;;;;;;23.50;68.90;23.60;99706.00;;;;335516;29;83357;-84
2022/07/30 00:59:50;;;;;;;;;;;23.50;69.00;23.60;99700.00;;;;334645;29;94566;-84
2022/07/30 01:00:07;;;;;;;;;;;23.50;69.00;23.60;99700.00;;;;336736;28;83515;-83
2022/07/30 01:00:19;;;;;;;;;;;23.50;68.90;23.50;99698.00;;;;334779;29;94502;-83
2022/07/30 01:00:31;;;;;;;;;;;23.50;68.80;23.50;99697.00;;;;338179;28;82386;-84
2022/07/30 01:00:43;;;;;;;;;;;23.40;68.70;23.50;99707.00;;;;337385;28;93898;-84